Latest Weather Observations for Groote Eylandt Airport

IDD60801

Issued at 3:05 pm CST Saturday 19 April 2014 (issued every 30 minutes, with the page automatically refreshed every 10 minutes)

About weather observations | Map of weather stations | Latest weather observations for NT | Other Formats
Station Details ID: 014518 Name: GROOTE EYLANDT AIRPORT Lat: -13.97 Lon: 136.46 Height: 13.7 m
Data from the previous 72 hours. | See also: Recent months at Groote Eylandt Airport
Date/Time
CST
Temp
°C
App
Temp
°C
Dew
Point
Rel
Hum
%
Delta-T
°C
Wind Press
QNH
hPa
Press
MSL
hPa
Rain
since 9 am
mm
Dir
 
Spd
km/h
Gust
km/h
Spd
kts
Gust
kts
19/03:00pm 30.8 32.7 22.7 62 5.5 E 17 26 9 14 1008.6 1008.5 0.0
19/02:30pm 31.6 32.2 23.4 61 5.7 E 26 35 14 19 1008.6 - 0.0
19/02:00pm 31.2 33.3 24.1 66 4.9 E 20 32 11 17 1008.9 - 0.0
19/01:30pm 30.5 34.4 24.9 72 3.9 ESE 13 30 7 16 1009.6 - 0.0
19/01:00pm 29.9 32.6 24.8 74 3.6 E 19 26 10 14 1009.9 - 0.0
19/12:30pm 31.4 33.2 23.2 61 5.7 ESE 19 28 10 15 1010.1 - 0.0
19/12:00pm 31.8 33.2 23.6 62 5.7 E 22 30 12 16 1010.6 1010.5 0.0
19/11:30am 31.6 32.4 23.2 61 5.8 E 24 32 13 17 1010.7 - 0.0
19/11:00am 31.3 33.2 23.7 64 5.3 E 20 30 11 16 1011.0 - 0.0
19/10:30am 30.9 32.8 23.8 66 4.9 E 20 28 11 15 1011.3 - 0.0
19/10:00am 30.8 34.3 24.2 68 4.6 ESE 13 24 7 13 1011.7 - 0.0
19/09:30am 30.2 33.1 24.4 71 4.0 E 17 24 9 13 1011.8 - 0.0
19/09:00am 30.2 34.8 24.8 73 3.8 ESE 9 15 5 8 1011.7 1011.6 0.0
19/08:30am 29.0 33.6 24.8 78 2.9 ESE 9 15 5 8 1011.7 - 0.0
19/08:00am 27.8 34.1 25.4 87 1.7 ESE 2 7 1 4 1011.5 - 0.0
19/07:30am 25.6 31.9 25.4 99 0.1 SE 2 6 1 3 1011.3 - 0.0
19/07:00am 24.0 29.7 23.8 99 0.1 CALM 0 0 0 0 1011.0 - 0.0
19/06:30am 24.0 29.7 23.8 99 0.1 CALM 0 0 0 0 1010.7 - 0.0
19/06:00am 24.1 29.9 23.9 99 0.1 SE 0 6 0 3 1010.3 1010.2 0.0
19/05:30am 24.2 28.9 24.0 99 0.1 ESE 6 7 3 4 1010.2 - 0.0
19/05:00am 24.5 30.5 24.3 99 0.1 CALM 0 0 0 0 1010.3 - 0.0
19/04:30am 24.7 29.7 24.5 99 0.1 ESE 6 7 3 4 1010.0 - 0.0
19/04:00am 24.8 30.3 24.6 99 0.1 SE 4 6 2 3 1009.9 - 0.0
19/03:30am 24.8 29.9 24.6 99 0.1 S 6 7 3 4 1010.0 - 0.0
19/03:00am 24.9 31.1 24.6 98 0.2 CALM 0 0 0 0 1010.3 1010.2 0.0
19/02:30am 25.2 31.6 24.9 98 0.2 CALM 0 0 0 0 1010.6 - 0.0
19/02:00am 25.1 31.4 24.8 98 0.2 CALM 0 0 0 0 1010.7 - 0.0
19/01:30am 25.2 31.6 24.9 98 0.2 CALM 0 0 0 0 1011.0 - 0.0
19/01:00am 25.2 31.6 24.9 98 0.2 CALM 0 0 0 0 1011.3 - 0.0
19/12:30am 25.5 32.1 25.2 98 0.2 CALM 0 0 0 0 1012.2 - 0.0
19/12:00am 25.4 31.9 25.1 98 0.2 S 0 0 0 0 1012.7 1012.6 0.0
 
Date/Time
CST
Temp
°C
App
Temp
°C
Dew
Point
Rel
Hum
%
Delta-T
°C
Wind Press
QNH
hPa
Press
MSL
hPa
Rain
since 9 am
mm
Dir
 
Spd
km/h
Gust
km/h
Spd
kts
Gust
kts
18/11:30pm 25.8 32.4 25.3 97 0.3 CALM 0 0 0 0 1013.0 - 0.0
18/11:00pm 25.7 32.4 25.4 98 0.2 CALM 0 0 0 0 1013.2 - 0.0
18/10:30pm 25.5 32.1 25.2 98 0.2 CALM 0 0 0 0 1013.1 - 0.0
18/10:00pm 25.7 32.4 25.4 98 0.2 CALM 0 0 0 0 1013.3 - 0.0
18/09:30pm 25.7 32.2 25.0 96 0.5 CALM 0 0 0 0 1013.2 - 0.0
18/09:00pm 25.8 32.3 25.1 96 0.5 CALM 0 0 0 0 1013.3 1013.2 0.0
18/08:30pm 26.1 32.5 24.9 93 0.8 CALM 0 0 0 0 1013.2 - 0.0
18/08:00pm 26.1 32.7 25.2 95 0.6 CALM 0 0 0 0 1012.8 - 0.0
18/07:30pm 26.2 32.5 24.8 92 1.0 CALM 0 0 0 0 1012.3 - 0.0
18/07:00pm 26.2 32.4 24.6 91 1.1 CALM 0 0 0 0 1012.0 - 0.0
18/06:30pm 26.5 32.6 24.5 89 1.4 CALM 0 0 0 0 1011.7 - 0.0
18/06:00pm 26.9 33.0 24.5 87 1.7 S 0 0 0 0 1011.3 1011.2 0.0
18/05:30pm 27.1 32.6 24.6 86 1.7 S 4 6 2 3 1011.2 - 0.0
18/05:00pm 27.3 32.8 24.6 85 1.9 S 4 7 2 4 1011.0 - 0.0
18/04:30pm 27.3 33.5 24.6 85 1.9 CALM 0 0 0 0 1010.9 - 0.0
18/04:00pm 27.3 33.3 24.2 83 2.1 CALM 0 0 0 0 1010.9 - 0.0
18/03:30pm 27.2 33.1 24.1 83 2.1 CALM 0 0 0 0 1010.9 - 0.0
18/03:00pm 27.2 32.6 23.9 82 2.3 SE 2 7 1 4 1010.8 1010.7 0.0
18/02:30pm 27.1 31.5 23.8 82 2.3 E 7 9 4 5 1010.6 - 0.0
18/02:00pm 26.9 30.3 23.4 81 2.4 ENE 11 15 6 8 1010.5 - 0.0
18/01:30pm 26.7 31.0 23.6 83 2.1 E 7 11 4 6 1010.9 - 0.0
18/01:00pm 26.3 29.8 24.2 88 1.4 ENE 13 17 7 9 1010.9 - 0.0
18/12:30pm 25.8 29.4 23.8 89 1.4 ENE 11 17 6 9 1011.5 - 0.0
18/12:00pm 25.6 29.0 24.0 91 1.1 ENE 13 20 7 11 1011.9 1011.8 0.0
18/11:30am 25.1 27.3 23.9 93 0.8 E 19 24 10 13 1012.3 - 0.0
18/11:00am 24.6 27.3 24.1 97 0.3 ENE 17 28 9 15 1012.7 - 0.0
18/10:30am 24.3 26.4 23.8 97 0.3 E 19 28 10 15 1012.9 - 0.0
18/10:00am 24.2 25.7 23.7 97 0.3 ENE 22 30 12 16 1012.4 - 0.0
18/09:30am 23.8 26.6 23.6 99 0.1 E 15 17 8 9 1013.0 - 0.0
18/09:00am 23.7 25.5 23.2 97 0.3 E 19 30 10 16 1013.0 1012.9 0.0
18/08:30am 24.0 26.5 23.8 99 0.1 E 17 24 9 13 1012.7 - 0.0
18/08:00am 24.1 26.0 23.8 98 0.2 ENE 20 28 11 15 1012.6 - 0.0
18/07:30am 24.7 27.3 24.0 96 0.5 E 17 20 9 11 1012.4 - 0.0
18/07:00am 25.2 28.2 24.0 93 0.8 NE 15 20 8 11 1011.6 - 0.0
18/06:30am 25.2 31.6 24.9 98 0.2 CALM 0 0 0 0 1011.0 - 0.0
18/06:00am 25.2 30.5 24.9 98 0.2 NNE 6 7 3 4 1010.7 1010.6 0.0
18/05:30am 25.2 31.7 25.0 99 0.1 CALM 0 0 0 0 1010.5 - 0.0
18/05:00am 25.0 31.3 24.7 98 0.2 CALM 0 0 0 0 1010.2 - 0.0
18/04:30am 24.8 30.9 24.5 98 0.2 CALM 0 0 0 0 1010.0 - 0.0
18/04:00am 24.8 31.0 24.6 99 0.1 CALM 0 0 0 0 1010.1 - 0.0
18/03:30am 24.8 30.9 24.5 98 0.2 CALM 0 0 0 0 1010.1 - 0.0
18/03:00am 25.0 31.3 24.7 98 0.2 CALM 0 0 0 0 1010.4 1010.3 0.0
18/02:30am 25.1 31.4 24.8 98 0.2 CALM 0 0 0 0 1010.7 - 0.0
18/02:00am 24.8 30.9 24.5 98 0.2 CALM 0 0 0 0 1010.6 - 0.0
18/01:30am 24.8 30.9 24.5 98 0.2 CALM 0 0 0 0 1010.8 - 0.0
18/01:00am 25.0 31.3 24.7 98 0.2 CALM 0 0 0 0 1011.3 - 0.0
18/12:30am 25.0 31.3 24.7 98 0.2 CALM 0 0 0 0 1011.4 - 0.0
18/12:00am 24.9 31.1 24.6 98 0.2 CALM 0 0 0 0 1011.7 1011.6 0.0
 
Date/Time
CST
Temp
°C
App
Temp
°C
Dew
Point
Rel
Hum
%
Delta-T
°C
Wind Press
QNH
hPa
Press
MSL
hPa
Rain
since 9 am
mm
Dir
 
Spd
km/h
Gust
km/h
Spd
kts
Gust
kts
17/11:30pm 25.0 31.3 24.7 98 0.2 CALM 0 0 0 0 1012.2 - 0.0
17/11:00pm 25.1 31.4 24.8 98 0.2 CALM 0 0 0 0 1012.3 - 0.0
17/10:30pm 25.3 31.8 25.0 98 0.2 CALM 0 0 0 0 1012.3 - 0.0
17/10:00pm 25.4 31.9 25.1 98 0.2 CALM 0 0 0 0 1012.1 - 0.0
17/09:30pm 25.6 32.2 25.3 98 0.2 CALM 0 0 0 0 1012.3 - 0.0
17/09:00pm 25.5 31.7 25.2 98 0.2 S 2 6 1 3 1012.1 1012.0 0.0
17/08:30pm 25.5 31.3 25.2 98 0.2 S 4 7 2 4 1011.8 - 0.0
17/08:00pm 25.6 31.9 25.3 98 0.2 SSE 2 6 1 3 1011.6 - 0.0
17/07:30pm 25.5 30.9 25.2 98 0.2 S 6 6 3 3 1011.2 - 0.0
17/07:00pm 25.5 32.0 25.0 97 0.3 CALM 0 0 0 0 1010.7 - 0.0
17/06:30pm 25.8 31.3 25.3 97 0.3 SE 6 7 3 4 1010.6 - 0.0
17/06:00pm 26.0 31.5 25.3 96 0.5 SE 6 9 3 5 1010.2 1010.1 0.0
17/05:30pm 26.1 31.1 25.4 96 0.5 E 9 15 5 8 1010.3 - 0.0
17/05:00pm 26.1 31.4 25.2 95 0.6 ENE 7 11 4 6 1009.7 - 0.0
17/04:30pm 26.3 29.0 24.2 88 1.4 E 17 22 9 12 1009.2 - 0.0
17/04:00pm 27.9 34.5 25.3 86 1.8 CALM 0 0 0 0 1009.0 - 0.0
17/03:30pm 28.7 32.9 24.7 79 2.8 E 11 20 6 11 1008.8 - 0.0
17/03:00pm 28.9 32.8 24.9 79 2.8 E 13 20 7 11 1008.9 1008.8 0.0
17/02:30pm 28.5 32.4 25.5 84 2.1 ENE 15 20 8 11 1009.2 - 0.0
17/02:00pm 28.5 33.2 25.5 84 2.1 NE 11 17 6 9 1009.3 - 0.0
17/01:30pm 27.5 31.4 24.9 86 1.8 E 13 20 7 11 1010.0 - 0.0
17/01:00pm 26.8 29.8 24.6 88 1.5 E 17 22 9 12 1009.8 - 0.0
17/12:30pm 26.2 29.4 23.7 86 1.7 ENE 13 20 7 11 1010.6 - 0.0
17/12:00pm 25.9 27.5 23.9 89 1.4 E 22 30 12 16 1010.7 1010.6 0.0
17/11:30am 27.3 28.7 24.2 83 2.1 E 24 37 13 20 1011.4 - 0.0
17/11:00am 27.3 29.4 25.3 89 1.4 E 24 35 13 19 1011.3 - 0.0
17/10:41am 29.2 29.4 23.4 71 4.0 E 28 50 15 27 1011.2 - 0.0
17/10:30am 31.7 33.2 24.3 65 5.2 E 24 37 13 20 1011.0 - 0.0
17/10:00am 31.3 32.4 24.4 66 4.8 E 26 35 14 19 1011.2 - 0.0
17/09:30am 30.5 34.4 24.9 72 3.9 ENE 13 20 7 11 1011.1 - 0.0
17/09:00am 28.4 32.4 23.8 76 3.2 E 9 13 5 7 1011.2 1011.1 0.0
17/08:30am 27.0 32.9 24.1 84 2.0 CALM 0 7 0 4 1011.4 - 0.0
17/08:00am 25.1 30.1 23.9 93 0.8 E 4 9 2 5 1011.1 - 0.0
17/07:30am 24.3 29.7 23.3 94 0.7 CALM 0 0 0 0 1011.0 - 0.0
17/07:00am 23.8 29.1 23.1 96 0.5 CALM 0 0 0 0 1010.8 - 0.0
17/06:30am 23.4 28.3 22.4 94 0.7 CALM 0 0 0 0 1010.4 - 0.0
17/06:00am 23.5 28.5 22.5 94 0.7 CALM 0 0 0 0 1010.1 1010.0 0.0
17/05:30am 23.6 28.5 22.4 93 0.8 CALM 0 0 0 0 1009.6 - 0.0
17/05:00am 23.8 28.7 22.4 92 0.9 CALM 0 0 0 0 1009.4 - 0.0
17/04:30am 23.6 28.7 22.6 94 0.7 CALM 0 0 0 0 1009.4 - 0.0
17/04:00am 22.9 26.4 22.2 96 0.5 SSE 7 11 4 6 1009.1 - 0.0
17/03:30am 22.7 27.3 21.7 94 0.7 CALM 0 0 0 0 1009.1 - 0.0
17/03:00am 22.7 27.3 21.7 94 0.7 CALM 0 0 0 0 1009.2 1009.1 0.0
17/02:30am 23.1 28.0 22.4 96 0.5 CALM 0 0 0 0 1009.3 - 0.0
17/02:00am 22.4 26.9 21.6 95 0.5 CALM 0 0 0 0 1009.8 - 0.0
17/01:30am 22.6 26.4 21.6 94 0.7 ESE 4 6 2 3 1010.1 - 0.0
17/01:00am 22.3 26.5 20.9 92 0.9 CALM 0 0 0 0 1010.2 - 0.0
17/12:30am 23.0 27.6 21.8 93 0.8 CALM 0 0 0 0 1010.5 - 0.0
17/12:00am 22.9 27.4 21.5 92 0.9 CALM 0 6 0 3 1010.8 1010.7 0.0
 
Date/Time
CST
Temp
°C
App
Temp
°C
Dew
Point
Rel
Hum
%
Delta-T
°C
Wind Press
QNH
hPa
Press
MSL
hPa
Rain
since 9 am
mm
Dir
 
Spd
km/h
Gust
km/h
Spd
kts
Gust
kts
16/11:30pm 23.1 27.7 21.7 92 0.9 CALM 0 0 0 0 1011.0 - 0.0
16/11:00pm 23.4 27.4 22.0 92 0.9 ESE 4 7 2 4 1011.2 - 0.0
16/10:30pm 23.4 28.0 21.8 91 1.1 CALM 0 0 0 0 1011.2 - 0.0
16/10:00pm 23.7 28.5 22.1 91 1.1 CALM 0 0 0 0 1011.4 - 0.0
16/09:30pm 24.2 29.5 23.0 93 0.8 CALM 0 7 0 4 1011.4 - 0.0
16/09:00pm 24.2 29.3 22.6 91 1.1 CALM 0 0 0 0 1011.0 1010.9 0.0
16/08:30pm 24.6 29.8 22.8 90 1.2 CALM 0 6 0 3 1010.7 - 0.0
16/08:00pm 25.0 30.1 22.7 87 1.5 CALM 0 0 0 0 1010.4 - 0.0
16/07:30pm 26.2 31.8 23.5 85 1.8 CALM 0 6 0 3 1009.8 - 0.0
16/07:00pm 26.6 31.1 23.7 84 2.0 E 6 7 3 4 1009.5 - 0.0
16/06:30pm 27.2 31.6 23.4 80 2.6 E 6 7 3 4 1009.3 - 0.0
16/06:00pm 28.2 32.3 23.3 75 3.4 E 7 9 4 5 1009.2 1009.1 0.0
16/05:30pm 28.7 32.9 23.1 71 3.8 ESE 6 7 3 4 1009.0 - 0.0
16/05:00pm 29.1 33.9 22.8 69 4.3 WSW 2 6 1 3 1008.9 - 0.0
16/04:30pm 28.8 33.0 23.2 71 3.8 S 6 7 3 4 1008.9 - 0.0
16/04:00pm 29.1 32.8 23.3 71 4.0 SW 9 15 5 8 1008.8 - 0.0
16/03:30pm 29.0 32.2 23.0 70 4.1 SW 11 19 6 10 1008.7 - 0.0

Other Formats:

Comma delimited format used in spreadsheet applications
http://www.bom.gov.au/fwo/IDD60801/IDD60801.94153.axf

JavaScript Object Notation format (JSON) in row-major order
http://www.bom.gov.au/fwo/IDD60801/IDD60801.94153.json